Time;durP1;ratioP1;P1;durP2;ratioP2;P2;SDS_P1;SDS_P2;PMS_P1;PMS_P2;Temp;Humidity;BMP_temperature;BMP_pressure;BME280_temperature;BME280_humidity;BME280_pressure;Samples;Min_cycle;Max_cycle;Signal;HPM_P1;HPM_P2
2022/07/13 00:01:42;;;;;;;2.23;2.00;;;;;;;16.60;85.65;98884.09;5055785;28;20299;-78
2022/07/13 00:04:09;;;;;;;2.27;2.00;;;;;;;16.50;86.35;98887.63;5057159;28;20214;-78
2022/07/13 00:06:35;;;;;;;3.73;2.10;;;;;;;16.38;87.63;98889.47;5055671;28;20208;-78
2022/07/13 00:09:02;;;;;;;1.93;1.70;;;;;;;16.39;88.33;98883.16;5055737;28;20212;-78
2022/07/13 00:11:28;;;;;;;2.13;1.93;;;;;;;16.37;88.61;98885.09;5054100;28;20212;-78
2022/07/13 00:13:56;;;;;;;1.97;1.87;;;;;;;16.36;88.69;98882.53;5057246;28;20242;-79
2022/07/13 00:16:23;;;;;;;2.20;2.00;;;;;;;16.38;89.03;98889.47;5055096;28;20666;-78
2022/07/13 00:18:49;;;;;;;4.57;2.30;;;;;;;16.42;90.00;98882.94;5055109;28;20208;-78
2022/07/13 00:21:16;;;;;;;3.30;2.50;;;;;;;16.37;90.73;98881.56;5055259;28;20240;-78
2022/07/13 00:23:42;;;;;;;3.77;2.73;;;;;;;16.34;91.88;98879.97;5057288;28;20214;-79
2022/07/13 00:26:09;;;;;;;4.00;2.70;;;;;;;16.31;92.62;98874.91;5055356;28;20220;-78
2022/07/13 00:28:36;;;;;;;3.50;2.60;;;;;;;16.27;93.18;98878.78;5055333;28;20246;-79
2022/07/13 00:31:05;;;;;;;4.53;3.10;;;;;;;16.27;93.86;98883.28;5055088;28;20298;-80
2022/07/13 00:33:31;;;;;;;3.87;2.57;;;;;;;16.21;94.46;98881.94;5056819;28;20215;-79
2022/07/13 00:35:58;;;;;;;3.13;2.83;;;;;;;16.18;95.09;98882.19;5053389;28;20226;-79
2022/07/13 00:38:25;;;;;;;3.73;3.07;;;;;;;16.19;95.55;98886.56;5055283;28;20212;-79
2022/07/13 00:40:51;;;;;;;6.17;2.67;;;;;;;16.14;96.10;98886.06;5054804;28;20219;-79
2022/07/13 00:43:19;;;;;;;4.13;2.90;;;;;;;16.12;96.27;98881.00;5056621;28;20236;-79
2022/07/13 00:45:45;;;;;;;3.13;2.70;;;;;;;16.02;96.73;98879.03;5040511;28;20677;-79
2022/07/13 00:48:14;;;;;;;2.80;2.50;;;;;;;16.01;97.34;98883.66;5054949;28;20207;-79
2022/07/13 00:50:41;;;;;;;2.80;2.50;;;;;;;15.99;97.80;98883.78;5054946;28;20215;-78
2022/07/13 00:53:08;;;;;;;3.30;2.70;;;;;;;16.02;97.82;98885.34;5056477;28;20212;-79
2022/07/13 00:55:35;;;;;;;3.57;2.63;;;;;;;16.04;98.42;98884.25;5039720;28;20242;-77
2022/07/13 00:58:02;;;;;;;4.33;2.90;;;;;;;16.09;98.77;98882.91;5054699;28;20215;-78
2022/07/13 01:00:28;;;;;;;4.10;3.10;;;;;;;16.12;99.01;98887.16;5054894;28;20220;-78
2022/07/13 01:02:55;;;;;;;3.47;2.70;;;;;;;16.14;99.02;98880.72;5054063;28;20208;-80
2022/07/13 01:05:23;;;;;;;3.00;2.70;;;;;;;16.14;99.25;98870.06;5055178;28;20218;-78
2022/07/13 01:07:49;;;;;;;3.57;2.43;;;;;;;16.18;98.58;98876.00;5054773;28;20216;-77
2022/07/13 01:10:16;;;;;;;2.53;2.33;;;;;;;16.18;98.41;98871.53;5054348;28;20254;-79
2022/07/13 01:12:42;;;;;;;3.50;2.57;;;;;;;16.19;98.08;98861.69;5055244;28;20684;-78
2022/07/13 01:15:10;;;;;;;2.83;2.40;;;;;;;16.22;97.30;98861.47;5055040;28;20756;-78
2022/07/13 01:17:37;;;;;;;3.53;2.00;;;;;;;16.22;96.96;98862.28;5054341;28;20692;-78
2022/07/13 01:20:05;;;;;;;3.30;2.40;;;;;;;16.21;97.00;98859.78;5054541;28;20576;-78
2022/07/13 01:22:36;;;;;;;3.17;2.43;;;;;;;16.22;96.91;98862.28;5055390;28;20216;-78
2022/07/13 01:25:04;;;;;;;4.23;2.60;;;;;;;16.27;96.66;98857.44;5053351;28;20696;-78
2022/07/13 01:27:32;;;;;;;4.33;2.30;;;;;;;16.29;96.65;98858.19;5053996;28;20246;-78
2022/07/13 01:29:59;;;;;;;2.50;2.30;;;;;;;16.37;96.38;98855.72;5053959;28;20303;-78
2022/07/13 01:32:25;;;;;;;3.17;2.40;;;;;;;16.41;96.50;98862.53;5055477;28;20212;-78
2022/07/13 01:34:52;;;;;;;3.33;2.40;;;;;;;16.42;97.02;98858.91;5054985;28;20239;-78
2022/07/13 01:37:19;;;;;;;4.17;2.80;;;;;;;16.47;96.87;98867.38;5054372;28;20218;-78
2022/07/13 01:39:46;;;;;;;2.73;2.43;;;;;;;16.51;97.21;98863.47;5054413;28;20220;-78
2022/07/13 01:42:13;;;;;;;2.90;2.50;;;;;;;16.50;97.57;98859.13;5055284;28;20230;-78
2022/07/13 01:44:40;;;;;;;3.23;2.53;;;;;;;16.52;97.89;98853.66;5054680;28;20222;-78
2022/07/13 01:47:10;;;;;;;3.10;2.80;;;;;;;16.51;98.34;98855.47;5054423;28;20238;-78
2022/07/13 01:49:36;;;;;;;3.83;2.87;;;;;;;16.55;98.42;98859.59;5054062;28;20216;-78
2022/07/13 01:52:03;;;;;;;3.03;2.70;;;;;;;16.51;99.03;98847.47;5054906;28;20677;-78
2022/07/13 01:54:30;;;;;;;3.63;2.60;;;;;;;16.51;99.18;98850.13;5052816;28;20731;-79
2022/07/13 01:56:56;;;;;;;4.30;2.63;;;;;;;16.52;99.35;98848.34;5054119;28;20223;-78
2022/07/13 01:59:24;;;;;;;5.30;3.00;;;;;;;16.53;99.36;98845.50;5054355;28;20223;-78
2022/07/13 02:01:51;;;;;;;3.10;2.73;;;;;;;16.58;98.99;98848.66;5054579;28;20303;-78
2022/07/13 02:04:17;;;;;;;3.83;2.80;;;;;;;16.57;99.38;98841.63;5055114;28;20226;-78
2022/07/13 02:06:44;;;;;;;3.10;2.80;;;;;;;16.60;99.19;98846.75;5056156;28;20295;-78
2022/07/13 02:09:10;;;;;;;4.17;2.90;;;;;;;16.55;99.42;98843.59;5057646;28;20212;-78
2022/07/13 02:11:37;;;;;;;4.17;2.60;;;;;;;16.48;100.00;98831.72;5057537;28;20208;-78
2022/07/13 02:14:04;;;;;;;3.17;2.87;;;;;;;16.44;100.00;98829.41;5059250;28;20212;-78
2022/07/13 02:16:31;;;;;;;3.97;2.83;;;;;;;16.43;100.00;98823.25;5055928;28;20208;-78
2022/07/13 02:18:58;;;;;;;3.80;3.00;;;;;;;16.42;100.00;98831.38;5055578;28;20307;-78
2022/07/13 02:21:24;;;;;;;2.97;2.63;;;;;;;16.45;100.00;98821.28;5055634;28;20236;-78
2022/07/13 02:23:51;;;;;;;4.90;2.70;;;;;;;16.51;99.54;98822.63;5059054;28;20218;-78
2022/07/13 02:26:18;;;;;;;4.33;3.00;;;;;;;16.53;99.44;98813.50;5057216;28;20222;-78
2022/07/13 02:28:44;;;;;;;4.07;2.90;;;;;;;16.60;98.79;98809.38;5057326;28;20689;-78
2022/07/13 02:31:11;;;;;;;3.07;2.77;;;;;;;16.61;98.68;98811.06;5057485;28;20215;-78
2022/07/13 02:33:39;;;;;;;2.83;2.30;;;;;;;16.62;98.18;98810.06;5059174;28;20302;-78
2022/07/13 02:36:06;;;;;;;5.47;2.80;;;;;;;16.63;98.05;98803.75;5055324;28;20246;-78
2022/07/13 02:38:33;;;;;;;3.70;2.53;;;;;;;16.66;97.46;98803.53;5057117;28;20212;-78
2022/07/13 02:40:59;;;;;;;4.83;2.57;;;;;;;16.65;97.27;98799.13;5057085;28;20212;-78
2022/07/13 02:43:26;;;;;;;4.10;2.50;;;;;;;16.62;97.36;98802.06;5058560;28;20212;-78
2022/07/13 02:45:52;;;;;;;2.83;2.50;;;;;;;16.61;97.47;98805.72;5055155;28;20680;-79
2022/07/13 02:48:20;;;;;;;2.97;2.67;;;;;;;16.56;97.58;98801.72;5057200;28;20302;-78
2022/07/13 02:50:48;;;;;;;2.70;2.50;;;;;;;16.42;98.42;98805.53;5057013;28;20215;-78
2022/07/13 02:53:15;;;;;;;4.33;2.80;;;;;;;16.36;98.76;98803.34;5058725;28;20306;-78
2022/07/13 02:55:41;;;;;;;3.77;2.83;;;;;;;16.30;98.95;98801.19;5056985;28;20242;-78
2022/07/13 02:58:08;;;;;;;2.63;2.43;;;;;;;16.29;98.90;98801.31;5057005;28;20239;-78
2022/07/13 03:00:34;;;;;;;2.60;2.37;;;;;;;16.22;99.11;98798.28;5056589;28;20787;-78
2022/07/13 03:03:01;;;;;;;3.00;2.27;;;;;;;16.24;98.82;98798.16;5058626;28;20212;-78
2022/07/13 03:05:27;;;;;;;2.20;2.00;;;;;;;16.21;98.72;98799.25;5057124;28;20329;-78
2022/07/13 03:07:55;;;;;;;2.40;2.17;;;;;;;16.21;98.72;98795.75;5057299;28;20211;-78
2022/07/13 03:10:22;;;;;;;2.90;2.20;;;;;;;16.21;98.89;98801.91;5057056;28;20215;-77
2022/07/13 03:12:48;;;;;;;3.67;2.23;;;;;;;16.27;98.11;98806.75;5057380;28;20212;-77
2022/07/13 03:15:15;;;;;;;2.53;2.10;;;;;;;16.31;97.19;98808.22;5056886;28;20330;-78
2022/07/13 03:17:42;;;;;;;2.13;1.93;;;;;;;16.33;97.06;98787.56;5055873;28;20752;-77
2022/07/13 03:20:10;;;;;;;2.50;2.10;;;;;;;16.38;96.72;98793.41;5056969;28;20212;-78
2022/07/13 03:22:36;;;;;;;2.23;2.03;;;;;;;16.42;96.57;98789.53;5058535;28;20304;-78
2022/07/13 03:25:06;;;;;;;2.83;2.10;;;;;;;16.46;96.16;98798.97;5042711;28;20258;-78
2022/07/13 03:27:33;;;;;;;3.87;2.10;;;;;;;16.50;95.86;98792.41;5056672;28;20212;-78
2022/07/13 03:29:59;;;;;;;2.37;2.00;;;;;;;16.49;96.09;98793.38;5056678;28;20252;-78
2022/07/13 03:32:26;;;;;;;2.30;2.10;;;;;;;16.50;96.23;98797.75;5057656;28;20218;-78
2022/07/13 03:34:53;;;;;;;2.53;2.20;;;;;;;16.44;96.62;98790.25;5041803;28;20243;-77
2022/07/13 03:37:19;;;;;;;2.27;2.07;;;;;;;16.41;96.82;98795.81;5055900;28;20219;-78
2022/07/13 03:39:46;;;;;;;2.37;2.10;;;;;;;16.38;97.20;98801.44;5054524;28;20222;-78
2022/07/13 03:42:14;;;;;;;2.03;1.80;;;;;;;16.34;97.62;98797.28;5056850;28;20697;-78
2022/07/13 03:44:40;;;;;;;2.17;1.97;;;;;;;16.26;98.07;98797.06;5056222;28;20581;-78
2022/07/13 03:47:07;;;;;;;2.90;2.00;;;;;;;16.17;98.52;98795.16;5055724;28;20270;-78
2022/07/13 03:49:33;;;;;;;4.10;2.20;;;;;;;16.10;99.24;98801.09;5055758;28;20218;-79
2022/07/13 03:52:00;;;;;;;2.40;2.20;;;;;;;15.97;100.00;98799.53;5056503;28;20233;-78
2022/07/13 03:54:27;;;;;;;2.97;2.00;;;;;;;15.92;100.00;98805.25;5056758;28;20208;-79
2022/07/13 03:56:53;;;;;;;3.10;2.30;;;;;;;15.85;100.00;98803.19;5055836;28;20242;-79
2022/07/13 03:59:21;;;;;;;2.80;2.40;;;;;;;15.79;100.00;98799.19;5055850;28;20311;-79
2022/07/13 04:01:48;;;;;;;2.27;2.07;;;;;;;15.75;100.00;98799.53;5056197;28;20238;-79
2022/07/13 04:04:14;;;;;;;3.13;2.27;;;;;;;15.74;100.00;98803.19;5054731;28;20661;-79
2022/07/13 04:06:41;;;;;;;2.73;2.40;;;;;;;15.79;100.00;98798.34;5055560;28;20669;-79
2022/07/13 04:09:07;;;;;;;3.70;2.33;;;;;;;15.77;100.00;98797.63;5055596;28;20227;-78
2022/07/13 04:11:34;;;;;;;3.37;2.17;;;;;;;15.80;100.00;98797.38;5055142;28;20216;-79
2022/07/13 04:14:00;;;;;;;2.90;2.20;;;;;;;15.77;100.00;98784.31;5053833;28;20691;-79
2022/07/13 04:16:28;;;;;;;2.80;2.30;;;;;;;15.80;100.00;98779.56;5055115;28;20235;-78
2022/07/13 04:18:55;;;;;;;3.73;2.47;;;;;;;15.82;100.00;98785.63;5055167;28;20696;-79
2022/07/13 04:21:21;;;;;;;4.20;2.00;;;;;;;15.84;100.00;98777.50;5055334;28;20282;-78
2022/07/13 04:23:49;;;;;;;2.80;2.33;;;;;;;15.84;100.00;98770.38;5057115;28;20587;-79
2022/07/13 04:26:15;;;;;;;2.70;2.27;;;;;;;15.86;100.00;98765.75;5053481;28;20220;-79
2022/07/13 04:28:42;;;;;;;2.90;2.50;;;;;;;15.92;100.00;98765.25;5053259;28;20644;-78
2022/07/13 04:31:08;;;;;;;3.00;2.07;;;;;;;15.93;100.00;98763.41;5053513;28;20225;-79
2022/07/13 04:33:36;;;;;;;3.27;2.23;;;;;;;15.95;100.00;98759.66;5056578;28;20207;-79
2022/07/13 04:36:03;;;;;;;2.10;1.90;;;;;;;15.98;100.00;98764.75;5053319;28;20242;-78
2022/07/13 04:38:30;;;;;;;2.47;2.20;;;;;;;16.02;100.00;98768.03;5055100;28;20223;-78
2022/07/13 04:40:56;;;;;;;2.43;2.03;;;;;;;16.06;100.00;98774.81;5055132;28;20299;-79
2022/07/13 04:43:23;;;;;;;2.30;1.97;;;;;;;16.08;100.00;98768.34;5056745;28;20308;-78
2022/07/13 04:45:49;;;;;;;2.40;2.00;;;;;;;16.12;100.00;98774.31;5055057;28;20212;-78
2022/07/13 04:48:18;;;;;;;1.70;1.60;;;;;;;16.14;100.00;98773.19;5054778;28;20689;-79
2022/07/13 04:50:46;;;;;;;2.67;2.03;;;;;;;16.18;100.00;98778.19;5054931;28;20212;-79
2022/07/13 04:53:12;;;;;;;2.57;2.00;;;;;;;16.24;100.00;98779.47;5056825;28;20216;-79
2022/07/13 04:55:39;;;;;;;2.37;1.93;;;;;;;16.24;100.00;98785.69;5053911;28;20594;-79
2022/07/13 04:58:07;;;;;;;2.17;1.93;;;;;;;16.51;98.85;98783.44;5054574;28;20212;-78
2022/07/13 05:00:34;;;;;;;2.00;1.83;;;;;;;16.73;97.24;98788.69;5054966;28;20212;-78
2022/07/13 05:03:00;;;;;;;2.43;2.07;;;;;;;16.83;95.83;98792.25;5056749;28;20222;-78
2022/07/13 05:05:30;;;;;;;2.03;1.70;;;;;;;17.02;94.76;98788.91;5054560;28;20220;-78
2022/07/13 05:07:59;;;;;;;2.30;1.90;;;;;;;17.22;94.04;98785.38;5055105;28;20304;-78
2022/07/13 05:10:25;;;;;;;2.70;2.03;;;;;;;17.50;92.55;98774.84;5054868;28;20216;-78
2022/07/13 05:12:52;;;;;;;4.60;1.73;;;;;;;18.21;88.40;98766.66;5056460;28;20220;-78
2022/07/13 05:15:19;;;;;;;2.40;1.80;;;;;;;19.35;81.84;98771.19;5054750;28;20215;-78
2022/07/13 05:17:45;;;;;;;2.13;1.70;;;;;;;20.62;75.48;98781.88;5054949;28;20216;-78
2022/07/13 05:20:13;;;;;;;2.27;1.87;;;;;;;21.77;69.22;98782.50;5054298;28;20671;-78
2022/07/13 05:22:39;;;;;;;2.17;1.60;;;;;;;22.88;63.77;98783.88;5054623;28;20219;-78
2022/07/13 05:25:08;;;;;;;2.07;1.87;;;;;;;23.84;58.73;98786.53;5054762;28;20224;-78
2022/07/13 05:27:35;;;;;;;1.73;1.60;;;;;;;24.65;54.57;98788.75;5054648;28;20219;-78
2022/07/13 05:30:01;;;;;;;2.90;1.73;;;;;;;25.43;51.14;98787.47;5054444;28;20572;-77
2022/07/13 05:32:28;;;;;;;2.30;1.60;;;;;;;26.26;49.23;98780.84;5056355;28;20642;-77
2022/07/13 05:34:54;;;;;;;1.73;1.47;;;;;;;27.10;47.45;98781.00;5054250;28;20212;-78
2022/07/13 05:37:21;;;;;;;1.63;1.47;;;;;;;27.64;46.07;98788.38;5054471;28;20608;-76
2022/07/13 05:39:48;;;;;;;1.93;1.40;;;;;;;28.15;44.16;98780.81;5054928;28;20686;-76
2022/07/13 05:42:16;;;;;;;1.43;1.33;;;;;;;27.67;45.07;98777.13;5059142;28;20214;-77
2022/07/13 05:44:43;;;;;;;2.43;1.33;;;;;;;27.14;46.27;98774.97;5044046;28;20215;-77
2022/07/13 05:47:09;;;;;;;1.60;1.50;;;;;;;27.49;44.70;98771.34;5058432;28;20212;-79
2022/07/13 05:49:36;;;;;;;2.03;1.63;;;;;;;27.54;44.97;98776.19;5056453;28;20212;-77
2022/07/13 05:52:02;;;;;;;3.77;1.70;;;;;;;27.81;43.86;98783.53;5059870;28;20212;-77
2022/07/13 05:54:30;;;;;;;3.43;1.40;;;;;;;27.19;44.86;98782.56;5058473;28;20222;-77
2022/07/13 05:56:57;;;;;;;2.73;1.20;;;;;;;26.59;46.26;98795.66;5058218;28;20605;-77
2022/07/13 05:59:25;;;;;;;2.73;1.50;;;;;;;26.20;47.56;98778.88;5058122;28;20669;-77
2022/07/13 06:01:52;;;;;;;2.13;1.30;;;;;;;26.08;48.08;98785.81;5059799;28;20303;-78
2022/07/13 06:04:18;;;;;;;1.50;1.40;;;;;;;25.48;49.36;98779.66;5058476;28;20211;-77
2022/07/13 06:06:45;;;;;;;1.23;1.20;;;;;;;24.90;51.12;98776.75;5058036;28;20212;-78
2022/07/13 06:09:12;;;;;;;1.37;1.13;;;;;;;24.32;52.64;98765.59;5057896;28;20208;-78
2022/07/13 06:11:39;;;;;;;2.03;1.47;;;;;;;23.85;54.15;98766.63;5058446;28;20674;-78
2022/07/13 06:14:06;;;;;;;2.03;1.30;;;;;;;23.48;55.44;98764.50;5056702;28;20608;-77
2022/07/13 06:16:34;;;;;;;1.60;1.40;;;;;;;23.23;56.76;98770.94;5057792;28;20231;-78
2022/07/13 06:19:00;;;;;;;1.53;1.43;;;;;;;23.05;57.40;98772.94;5057893;28;20222;-78
2022/07/13 06:21:27;;;;;;;1.60;1.50;;;;;;;22.92;57.99;98772.59;5058519;28;20231;-79
2022/07/13 06:23:54;;;;;;;2.77;1.50;;;;;;;22.91;58.67;98770.91;5058356;28;20313;-81
2022/07/13 06:26:20;;;;;;;1.80;1.40;;;;;;;22.93;58.44;98773.47;5057800;28;20208;-80
2022/07/13 06:28:47;;;;;;;3.40;1.50;;;;;;;22.90;58.66;98774.63;5057833;28;20212;-78
2022/07/13 06:31:13;;;;;;;2.00;1.77;;;;;;;22.95;58.25;98782.22;5057846;28;20218;-78
2022/07/13 06:33:42;;;;;;;2.47;1.60;;;;;;;22.97;58.08;98781.03;5071940;28;20216;-77
2022/07/13 06:36:09;;;;;;;1.50;1.40;;;;;;;23.00;58.11;98775.31;5056308;28;20232;-80
2022/07/13 06:38:35;;;;;;;2.50;1.40;;;;;;;23.00;58.07;98772.63;5057548;28;20303;-80
2022/07/13 06:41:02;;;;;;;2.67;1.60;;;;;;;23.03;58.51;98774.97;5056054;28;20212;-82
2022/07/13 06:43:28;;;;;;;3.40;1.60;;;;;;;23.08;57.93;98777.16;5055938;28;20690;-82
2022/07/13 06:45:55;;;;;;;5.17;1.63;;;;;;;23.09;58.12;98784.22;5057356;28;20693;-82
2022/07/13 06:48:22;;;;;;;1.80;1.30;;;;;;;23.21;57.63;98778.38;5057330;28;20212;-81
2022/07/13 06:50:50;;;;;;;3.27;1.40;;;;;;;23.42;57.26;98775.16;5057543;28;20212;-81
2022/07/13 06:53:16;;;;;;;2.27;1.40;;;;;;;23.70;56.98;98769.19;5058667;28;20243;-82
2022/07/13 06:55:43;;;;;;;2.30;1.30;;;;;;;23.61;57.77;98781.03;5057205;28;20605;-82
2022/07/13 06:58:09;;;;;;;1.90;1.50;;;;;;;24.28;55.72;98790.44;5057601;28;20212;-82
2022/07/13 07:00:36;;;;;;;1.60;1.50;;;;;;;25.66;51.17;98793.69;5054394;28;20215;-80
2022/07/13 07:03:03;;;;;;;3.10;1.70;;;;;;;26.70;47.82;98787.03;5055804;28;20211;-80
2022/07/13 07:05:29;;;;;;;2.13;1.33;;;;;;;27.36;46.45;98792.13;5055769;28;20569;-80
2022/07/13 07:07:59;;;;;;;1.97;1.40;;;;;;;27.48;45.64;98782.41;5054217;28;20658;-80
2022/07/13 07:10:26;;;;;;;2.23;1.60;;;;;;;27.35;46.11;98782.31;5055759;28;20216;-81
2022/07/13 07:12:52;;;;;;;1.70;1.40;;;;;;;26.74;47.20;98776.63;5057592;28;20560;-81
2022/07/13 07:15:19;;;;;;;2.43;1.40;;;;;;;25.63;49.66;98785.09;5055659;28;20636;-81
2022/07/13 07:17:46;;;;;;;1.60;1.50;;;;;;;24.68;52.39;98782.97;5043890;28;20323;-81
2022/07/13 07:20:14;;;;;;;1.40;1.30;;;;;;;24.02;54.66;98774.50;5035806;28;20216;-76
2022/07/13 07:22:41;;;;;;;2.70;2.00;;;;;;;23.70;54.85;98769.19;5054689;28;20564;-74
2022/07/13 07:25:10;;;;;;;1.50;1.40;;;;;;;23.57;55.56;98768.88;5055217;28;20212;-74
2022/07/13 07:27:37;;;;;;;2.10;1.70;;;;;;;23.49;56.13;98765.34;5055137;28;20300;-73
2022/07/13 07:30:04;;;;;;;1.60;1.50;;;;;;;23.49;55.96;98758.13;5054816;28;20219;-74
2022/07/13 07:32:30;;;;;;;2.53;1.30;;;;;;;23.60;56.93;98763.13;5054773;28;20211;-74
2022/07/13 07:34:57;;;;;;;1.33;1.20;;;;;;;23.71;56.29;98770.03;5054834;28;20216;-75
2022/07/13 07:37:23;;;;;;;2.17;1.60;;;;;;;23.90;56.09;98765.09;5054429;28;20235;-73
2022/07/13 07:39:50;;;;;;;5.70;1.57;;;;;;;24.21;54.28;98757.88;5052318;28;20216;-73
2022/07/13 07:42:19;;;;;;;1.67;1.57;;;;;;;24.57;53.39;98764.47;5043829;28;20564;-75
2022/07/13 07:44:45;;;;;;;1.60;1.30;;;;;;;24.98;53.65;98771.28;5046222;28;20208;-75
2022/07/13 07:47:12;;;;;;;1.47;1.30;;;;;;;25.40;52.21;98768.06;5053700;28;20668;-78
2022/07/13 07:49:39;;;;;;;2.53;1.53;;;;;;;25.81;50.42;98762.06;5048961;28;20223;-74
2022/07/13 07:52:06;;;;;;;1.60;1.30;;;;;;;26.22;48.89;98760.56;5051472;28;20212;-77
2022/07/13 07:54:32;;;;;;;2.23;1.30;;;;;;;26.69;47.14;98762.84;5056430;28;20306;-78
2022/07/13 07:56:59;;;;;;;2.00;1.43;;;;;;;27.00;46.29;98755.22;5055981;28;20330;-78
2022/07/13 07:59:27;;;;;;;2.07;1.30;;;;;;;27.39;46.42;98764.59;5054371;28;20550;-76
2022/07/13 08:01:53;;;;;;;2.17;1.40;;;;;;;27.71;44.88;98761.28;5058221;28;20222;-78
2022/07/13 08:04:20;;;;;;;1.93;1.10;;;;;;;28.01;44.30;98758.13;5042459;28;20216;-78
2022/07/13 08:06:47;;;;;;;1.40;1.30;;;;;;;28.13;43.35;98761.16;5055862;28;20218;-77
2022/07/13 08:09:13;;;;;;;1.47;1.10;;;;;;;28.20;43.08;98764.75;5055687;28;20222;-77
2022/07/13 08:11:40;;;;;;;1.20;1.10;;;;;;;28.20;42.75;98757.41;5058478;28;20240;-79
2022/07/13 08:14:08;;;;;;;2.30;1.10;;;;;;;28.23;43.82;98756.16;5056219;28;20212;-78
2022/07/13 08:16:35;;;;;;;1.38;1.02;;;;;;;28.35;43.71;98751.81;5055303;28;20278;-77
2022/07/13 08:19:02;;;;;;;1.00;1.00;;;;;;;28.62;43.30;98754.47;5055328;28;20223;-77
2022/07/13 08:21:28;;;;;;;1.13;0.97;;;;;;;28.94;42.70;98747.44;5057831;28;20236;-77
2022/07/13 08:23:55;;;;;;;1.42;1.00;;;;;;;29.18;42.29;98757.75;5055721;28;20214;-77
2022/07/13 08:26:23;;;;;;;3.20;1.15;;;;;;;29.29;41.97;98746.25;5053684;28;20216;-77
2022/07/13 08:28:51;;;;;;;2.67;0.90;;;;;;;29.34;41.29;98751.91;5055499;28;20453;-77
2022/07/13 08:31:18;;;;;;;1.60;1.08;;;;;;;29.27;41.35;98746.44;5057814;28;20216;-77
2022/07/13 08:39:14;;;;;;;1.20;1.10;;;;;;;29.44;41.02;98741.41;5057872;28;20223;-77
2022/07/13 08:41:41;;;;;;;1.50;0.90;;;;;;;29.56;40.33;98739.75;5055399;28;20434;-77
2022/07/13 08:44:07;;;;;;;3.53;1.13;;;;;;;29.49;39.75;98730.72;5055061;28;20212;-77
2022/07/13 08:46:34;;;;;;;1.67;1.17;;;;;;;29.40;40.26;98743.72;5055257;28;20298;-77
2022/07/13 08:49:02;;;;;;;2.58;1.10;;;;;;;29.34;40.29;98735.56;5057731;28;20590;-77
2022/07/13 08:51:31;;;;;;;1.10;1.00;;;;;;;29.25;39.33;98736.81;5055215;28;20216;-77
2022/07/13 08:53:58;;;;;;;1.23;1.00;;;;;;;29.09;40.52;98734.50;5053609;28;20212;-77
2022/07/13 08:56:24;;;;;;;1.83;1.05;;;;;;;29.08;40.70;98735.53;5054964;28;20212;-77
2022/07/13 08:58:52;;;;;;;1.27;0.90;;;;;;;29.19;40.55;98732.19;5057439;28;20322;-77
2022/07/13 09:01:19;;;;;;;1.10;0.90;;;;;;;29.26;39.47;98733.03;5055165;28;20227;-77
2022/07/13 09:03:46;;;;;;;1.60;1.00;;;;;;;29.26;39.18;98722.13;5054711;28;20218;-77
2022/07/13 09:06:41;;;;;;;1.52;1.08;;;;;;;29.07;40.83;98720.25;5053682;28;20208;-77
2022/07/13 09:09:23;;;;;;;2.25;1.20;;;;;;;28.79;40.97;98730.47;5054142;28;20216;-77
2022/07/13 09:11:50;;;;;;;1.00;0.90;;;;;;;28.38;41.84;98727.00;5054603;28;20226;-77
2022/07/13 09:14:24;;;;;;;1.10;1.00;;;;;;;28.02;42.61;98734.53;5054830;28;20208;-77
2022/07/13 09:16:52;;;;;;;1.73;1.17;;;;;;;27.83;42.84;98724.41;5059159;28;20238;-77
2022/07/13 09:19:24;;;;;;;1.80;1.10;;;;;;;27.81;44.05;98734.63;5062909;28;20207;-77
2022/07/13 09:22:07;;;;;;;3.05;1.20;;;;;;;27.78;43.96;98735.88;5061807;28;20242;-77
2022/07/13 09:24:42;;;;;;;1.13;0.93;;;;;;;27.69;42.70;98730.78;5055688;28;20212;-77
2022/07/13 09:27:09;;;;;;;1.30;0.93;;;;;;;27.81;42.03;98726.50;5058818;28;20234;-75
2022/07/13 09:29:36;;;;;;;1.80;1.10;;;;;;;27.84;40.50;98723.34;5058483;28;20215;-76
2022/07/13 09:32:07;;;;;;;1.75;1.17;;;;;;;28.05;42.84;98726.81;5059320;28;20220;-76
2022/07/13 09:34:50;;;;;;;1.48;1.10;;;;;;;28.15;40.92;98723.72;5060088;28;20226;-76
2022/07/13 09:37:20;;;;;;;3.00;1.15;;;;;;;28.13;40.23;98731.25;5058488;28;20238;-75
2022/07/13 09:40:00;;;;;;;1.90;1.02;;;;;;;28.13;38.77;98720.38;5058244;28;20674;-75
2022/07/13 09:42:28;;;;;;;0.90;0.90;;;;;;;28.14;39.37;98722.03;5056668;28;20210;-75
2022/07/13 09:47:42;;;;;;;2.83;1.13;;;;;;;28.37;39.84;98728.84;5056744;28;20224;-76
2022/07/13 09:50:09;;;;;;;1.20;1.10;;;;;;;28.31;40.12;98726.09;5054973;28;20218;-76
2022/07/13 09:52:38;;;;;;;1.48;1.10;;;;;;;28.31;40.26;98726.91;5058013;28;20725;-76
2022/07/13 09:55:10;;;;;;;4.30;1.13;;;;;;;28.34;38.12;98725.69;5057993;28;20218;-76
2022/07/13 09:57:44;;;;;;;1.02;0.82;;;;;;;28.38;36.11;98727.00;5058423;28;20276;-75
2022/07/13 10:00:13;;;;;;;1.42;1.02;;;;;;;28.34;34.97;98731.13;5059248;28;20286;-76
2022/07/13 10:02:42;;;;;;;1.25;1.10;;;;;;;28.38;37.27;98730.53;5056863;28;20295;-77
2022/07/13 10:05:10;;;;;;;1.73;0.95;;;;;;;28.33;35.60;98721.28;5057187;28;20512;-76
2022/07/13 10:07:38;;;;;;;0.80;0.80;;;;;;;28.22;31.45;98721.88;5059644;28;20234;-76
2022/07/13 10:10:06;;;;;;;0.85;0.85;;;;;;;28.28;32.35;98727.34;5058845;28;20208;-77
2022/07/13 10:12:36;;;;;;;1.92;0.95;;;;;;;28.40;35.28;98727.63;5056487;28;20637;-75
2022/07/13 10:15:03;;;;;;;1.13;1.00;;;;;;;28.47;36.59;98731.19;5057659;28;20212;-76
2022/07/13 10:17:29;;;;;;;1.20;0.80;;;;;;;28.60;35.48;98729.34;5060260;28;20259;-75
2022/07/13 10:20:03;;;;;;;1.83;0.82;;;;;;;28.62;35.33;98729.16;5058784;28;20238;-75
2022/07/13 10:22:35;;;;;;;1.73;0.70;;;;;;;28.54;29.32;98726.59;5058049;28;20281;-75
2022/07/13 10:25:03;;;;;;;0.88;0.85;;;;;;;28.67;30.62;98715.78;5057894;28;20302;-78
2022/07/13 10:27:31;;;;;;;2.30;0.90;;;;;;;28.70;31.55;98723.53;5060667;28;20227;-75
2022/07/13 10:30:00;;;;;;;1.40;0.88;;;;;;;28.76;31.94;98711.81;5057717;28;20215;-76
2022/07/13 10:32:28;;;;;;;2.05;1.02;;;;;;;28.71;30.63;98714.31;5057297;28;20307;-76
2022/07/13 10:34:58;;;;;;;0.82;0.82;;;;;;;28.88;33.86;98721.03;5057574;28;20244;-74
2022/07/13 10:37:26;;;;;;;0.70;0.70;;;;;;;28.97;34.22;98722.56;5054839;28;20246;-74
2022/07/13 10:40:19;;;;;;;1.50;0.90;;;;;;;29.11;33.62;98713.34;5056013;28;20213;-74
2022/07/13 10:43:10;;;;;;;0.70;0.70;;;;;;;29.19;34.15;98707.69;5042558;28;20214;-75
2022/07/13 10:45:40;;;;;;;3.35;0.90;;;;;;;29.24;32.37;98699.75;5044508;28;20216;-75
2022/07/13 10:48:10;;;;;;;1.67;0.70;;;;;;;29.37;32.48;98708.75;5057705;28;20248;-75
2022/07/13 10:50:44;;;;;;;1.42;0.75;;;;;;;29.63;31.44;98702.44;5056980;28;20212;-74
2022/07/13 10:53:11;;;;;;;1.30;0.80;;;;;;;29.91;29.54;98701.13;5054890;28;20676;-74
2022/07/13 10:55:47;;;;;;;1.83;0.90;;;;;;;30.15;29.38;98703.16;5057048;28;20216;-74
2022/07/13 10:58:44;;;;;;;2.15;0.80;;;;;;;30.35;26.99;98697.63;5056839;28;20234;-74
2022/07/13 11:01:41;;;;;;;0.90;0.70;;;;;;;30.61;27.93;98689.28;5050500;28;20216;-74
2022/07/13 11:04:09;;;;;;;1.10;0.70;;;;;;;31.11;29.22;98693.81;5022353;28;20266;-74
2022/07/13 11:06:38;;;;;;;1.15;0.75;;;;;;;31.44;25.79;98689.75;5057246;28;20259;-74
2022/07/13 11:09:13;;;;;;;2.90;0.80;;;;;;;31.71;26.96;98680.25;5057485;28;20223;-73
2022/07/13 11:11:49;;;;;;;0.90;0.70;;;;;;;31.86;25.81;98682.63;5056984;28;20216;-74
2022/07/13 11:14:46;;;;;;;1.25;0.70;;;;;;;31.73;25.38;98666.34;5057027;28;20226;-74
2022/07/13 11:17:13;;;;;;;0.90;0.70;;;;;;;31.70;26.40;98672.22;5045156;28;22192;-74
2022/07/13 11:19:54;;;;;;;1.13;1.00;;;;;;;31.77;27.49;98673.03;5056736;28;20302;-74
2022/07/13 11:22:21;;;;;;;0.70;0.60;;;;;;;31.64;27.71;98675.88;5058848;28;20693;-74
2022/07/13 11:25:15;;;;;;;0.65;0.60;;;;;;;31.47;28.56;98678.38;5054613;28;20261;-74
2022/07/13 11:27:59;;;;;;;0.80;0.70;;;;;;;31.27;29.20;98668.69;5054029;28;20216;-74
2022/07/13 11:30:29;;;;;;;1.38;0.70;;;;;;;31.10;28.01;98664.78;5053028;28;20212;-74
2022/07/13 11:32:57;;;;;;;1.02;0.60;;;;;;;30.83;27.13;98663.34;5052438;28;20223;-74
2022/07/13 11:35:24;;;;;;;1.10;0.80;;;;;;;30.75;27.60;98660.91;5054013;28;20216;-74
2022/07/13 11:37:52;;;;;;;1.60;0.70;;;;;;;30.76;28.67;98657.91;5053482;28;20240;-74
2022/07/13 11:40:29;;;;;;;0.77;0.60;;;;;;;30.72;29.32;98655.84;5054064;28;20212;-74
2022/07/13 11:42:59;;;;;;;0.85;0.63;;;;;;;30.75;28.11;98655.44;5054091;28;20226;-74
2022/07/13 11:45:27;;;;;;;0.75;0.60;;;;;;;30.76;29.71;98657.09;5053808;28;20208;-74